sensor_id;sensor_type;location;lat;lon;timestamp;temperature;humidity
31303;DHT22;51116;52.084;5.426;2022-07-04T00:02:10;27.40;67.00
31303;DHT22;51116;52.084;5.426;2022-07-04T00:04:37;27.40;67.00
31303;DHT22;51116;52.084;5.426;2022-07-04T00:07:04;27.40;67.00
31303;DHT22;51116;52.084;5.426;2022-07-04T00:09:31;27.40;67.00
31303;DHT22;51116;52.084;5.426;2022-07-04T00:11:58;27.40;67.10
31303;DHT22;51116;52.084;5.426;2022-07-04T00:14:26;27.30;67.00
31303;DHT22;51116;52.084;5.426;2022-07-04T00:16:53;27.30;67.00
31303;DHT22;51116;52.084;5.426;2022-07-04T00:19:20;27.30;68.00
31303;DHT22;51116;52.084;5.426;2022-07-04T00:21:47;27.30;67.10
31303;DHT22;51116;52.084;5.426;2022-07-04T00:24:14;27.30;67.10
31303;DHT22;51116;52.084;5.426;2022-07-04T00:26:40;27.30;67.20
31303;DHT22;51116;52.084;5.426;2022-07-04T00:29:07;27.20;67.10
31303;DHT22;51116;52.084;5.426;2022-07-04T00:31:35;27.20;67.20
31303;DHT22;51116;52.084;5.426;2022-07-04T00:34:03;27.20;67.20
31303;DHT22;51116;52.084;5.426;2022-07-04T00:36:31;27.20;67.20
31303;DHT22;51116;52.084;5.426;2022-07-04T00:38:57;27.20;67.30
31303;DHT22;51116;52.084;5.426;2022-07-04T00:41:25;27.20;67.30
31303;DHT22;51116;52.084;5.426;2022-07-04T00:44:00;27.20;67.30
31303;DHT22;51116;52.084;5.426;2022-07-04T00:46:27;27.20;67.30
31303;DHT22;51116;52.084;5.426;2022-07-04T00:48:55;27.20;67.30
31303;DHT22;51116;52.084;5.426;2022-07-04T00:51:23;27.20;67.40
31303;DHT22;51116;52.084;5.426;2022-07-04T00:53:50;27.20;68.20
31303;DHT22;51116;52.084;5.426;2022-07-04T00:56:17;27.20;67.40
31303;DHT22;51116;52.084;5.426;2022-07-04T00:58:44;27.20;67.50
31303;DHT22;51116;52.084;5.426;2022-07-04T01:01:11;27.20;67.50
31303;DHT22;51116;52.084;5.426;2022-07-04T01:03:38;27.20;67.50
31303;DHT22;51116;52.084;5.426;2022-07-04T01:06:07;27.10;67.50
31303;DHT22;51116;52.084;5.426;2022-07-04T01:08:35;27.10;67.50
31303;DHT22;51116;52.084;5.426;2022-07-04T01:11:02;27.10;67.50
31303;DHT22;51116;52.084;5.426;2022-07-04T01:13:29;27.10;67.50
31303;DHT22;51116;52.084;5.426;2022-07-04T01:15:56;27.10;67.60
31303;DHT22;51116;52.084;5.426;2022-07-04T01:18:23;27.10;67.50
31303;DHT22;51116;52.084;5.426;2022-07-04T01:20:51;27.10;67.60
31303;DHT22;51116;52.084;5.426;2022-07-04T01:23:18;27.00;67.50
31303;DHT22;51116;52.084;5.426;2022-07-04T01:25:45;27.10;67.60
31303;DHT22;51116;52.084;5.426;2022-07-04T01:28:12;27.00;67.50
31303;DHT22;51116;52.084;5.426;2022-07-04T01:30:39;27.00;67.60
31303;DHT22;51116;52.084;5.426;2022-07-04T01:33:06;27.00;67.60
31303;DHT22;51116;52.084;5.426;2022-07-04T01:35:33;27.00;67.60
31303;DHT22;51116;52.084;5.426;2022-07-04T01:38:01;27.00;67.60
31303;DHT22;51116;52.084;5.426;2022-07-04T01:40:28;27.00;67.60
31303;DHT22;51116;52.084;5.426;2022-07-04T01:42:55;26.90;67.60
31303;DHT22;51116;52.084;5.426;2022-07-04T01:45:24;26.90;67.60
31303;DHT22;51116;52.084;5.426;2022-07-04T01:47:50;26.90;67.60
31303;DHT22;51116;52.084;5.426;2022-07-04T01:50:17;26.90;67.60
31303;DHT22;51116;52.084;5.426;2022-07-04T01:52:44;26.90;67.70
31303;DHT22;51116;52.084;5.426;2022-07-04T01:55:13;26.90;67.80
31303;DHT22;51116;52.084;5.426;2022-07-04T01:57:39;26.90;67.80
31303;DHT22;51116;52.084;5.426;2022-07-04T02:00:08;26.90;67.80
31303;DHT22;51116;52.084;5.426;2022-07-04T02:02:53;26.90;67.80
31303;DHT22;51116;52.084;5.426;2022-07-04T02:05:21;26.90;67.80
31303;DHT22;51116;52.084;5.426;2022-07-04T02:07:48;26.90;67.80
31303;DHT22;51116;52.084;5.426;2022-07-04T02:10:17;26.80;67.80
31303;DHT22;51116;52.084;5.426;2022-07-04T02:12:44;26.90;67.90
31303;DHT22;51116;52.084;5.426;2022-07-04T02:15:30;26.80;67.80
31303;DHT22;51116;52.084;5.426;2022-07-04T02:17:58;26.80;67.80
31303;DHT22;51116;52.084;5.426;2022-07-04T02:20:25;26.80;67.80
31303;DHT22;51116;52.084;5.426;2022-07-04T02:22:53;26.80;67.90
31303;DHT22;51116;52.084;5.426;2022-07-04T02:25:22;26.90;67.90
31303;DHT22;51116;52.084;5.426;2022-07-04T02:27:54;26.80;67.80
31303;DHT22;51116;52.084;5.426;2022-07-04T02:30:21;26.80;67.90
31303;DHT22;51116;52.084;5.426;2022-07-04T02:32:48;26.80;67.90
31303;DHT22;51116;52.084;5.426;2022-07-04T02:35:15;27.00;68.20
31303;DHT22;51116;52.084;5.426;2022-07-04T02:37:42;26.70;67.90
31303;DHT22;51116;52.084;5.426;2022-07-04T02:40:09;26.70;67.90
31303;DHT22;51116;52.084;5.426;2022-07-04T02:42:38;26.70;67.90
31303;DHT22;51116;52.084;5.426;2022-07-04T02:45:06;26.70;67.90
31303;DHT22;51116;52.084;5.426;2022-07-04T02:47:33;26.70;67.90
31303;DHT22;51116;52.084;5.426;2022-07-04T02:50:00;26.70;67.90
31303;DHT22;51116;52.084;5.426;2022-07-04T02:52:28;26.70;68.00
31303;DHT22;51116;52.084;5.426;2022-07-04T02:54:55;26.60;67.90
31303;DHT22;51116;52.084;5.426;2022-07-04T02:57:22;26.60;67.90
31303;DHT22;51116;52.084;5.426;2022-07-04T02:59:50;26.60;67.90
31303;DHT22;51116;52.084;5.426;2022-07-04T03:02:17;26.60;68.00
31303;DHT22;51116;52.084;5.426;2022-07-04T03:04:44;26.60;68.00
31303;DHT22;51116;52.084;5.426;2022-07-04T03:07:11;26.60;68.10
31303;DHT22;51116;52.084;5.426;2022-07-04T03:09:37;26.60;68.00
31303;DHT22;51116;52.084;5.426;2022-07-04T03:12:06;26.60;68.10
31303;DHT22;51116;52.084;5.426;2022-07-04T03:14:33;26.60;68.40
31303;DHT22;51116;52.084;5.426;2022-07-04T03:17:01;26.60;68.10
31303;DHT22;51116;52.084;5.426;2022-07-04T03:19:28;26.60;68.20
31303;DHT22;51116;52.084;5.426;2022-07-04T03:21:54;26.60;68.20
31303;DHT22;51116;52.084;5.426;2022-07-04T03:24:21;26.60;68.20
31303;DHT22;51116;52.084;5.426;2022-07-04T03:26:48;26.60;68.20
31303;DHT22;51116;52.084;5.426;2022-07-04T03:29:15;26.60;68.20
31303;DHT22;51116;52.084;5.426;2022-07-04T03:31:42;26.60;68.20
31303;DHT22;51116;52.084;5.426;2022-07-04T03:34:10;26.60;68.20
31303;DHT22;51116;52.084;5.426;2022-07-04T03:36:37;26.50;68.10
31303;DHT22;51116;52.084;5.426;2022-07-04T03:39:04;26.50;68.10
31303;DHT22;51116;52.084;5.426;2022-07-04T03:41:31;26.50;68.20
31303;DHT22;51116;52.084;5.426;2022-07-04T03:43:58;26.50;68.20
31303;DHT22;51116;52.084;5.426;2022-07-04T03:46:25;26.50;68.20
31303;DHT22;51116;52.084;5.426;2022-07-04T03:48:51;26.50;68.20
31303;DHT22;51116;52.084;5.426;2022-07-04T03:51:20;26.50;68.20
31303;DHT22;51116;52.084;5.426;2022-07-04T03:53:48;26.50;68.20
31303;DHT22;51116;52.084;5.426;2022-07-04T03:56:15;26.50;68.20
31303;DHT22;51116;52.084;5.426;2022-07-04T03:58:43;26.50;68.20
31303;DHT22;51116;52.084;5.426;2022-07-04T04:01:14;26.50;68.20
31303;DHT22;51116;52.084;5.426;2022-07-04T04:03:41;26.50;68.20
31303;DHT22;51116;52.084;5.426;2022-07-04T04:06:27;26.50;68.20
31303;DHT22;51116;52.084;5.426;2022-07-04T04:08:54;26.50;68.30
31303;DHT22;51116;52.084;5.426;2022-07-04T04:11:21;26.50;68.20
31303;DHT22;51116;52.084;5.426;2022-07-04T04:13:48;26.40;68.20
31303;DHT22;51116;52.084;5.426;2022-07-04T04:16:15;26.50;68.30
31303;DHT22;51116;52.084;5.426;2022-07-04T04:18:42;26.40;69.10
31303;DHT22;51116;52.084;5.426;2022-07-04T04:21:08;26.40;68.30
31303;DHT22;51116;52.084;5.426;2022-07-04T04:23:36;26.40;68.30
31303;DHT22;51116;52.084;5.426;2022-07-04T04:26:03;26.40;68.30
31303;DHT22;51116;52.084;5.426;2022-07-04T04:28:30;26.40;68.30
31303;DHT22;51116;52.084;5.426;2022-07-04T04:30:57;26.40;68.30
31303;DHT22;51116;52.084;5.426;2022-07-04T04:33:24;26.40;68.30
31303;DHT22;51116;52.084;5.426;2022-07-04T04:35:51;26.50;68.40
31303;DHT22;51116;52.084;5.426;2022-07-04T04:38:17;26.40;68.30
31303;DHT22;51116;52.084;5.426;2022-07-04T04:40:45;26.40;68.30
31303;DHT22;51116;52.084;5.426;2022-07-04T04:43:12;26.40;68.30
31303;DHT22;51116;52.084;5.426;2022-07-04T04:45:39;26.40;68.30
31303;DHT22;51116;52.084;5.426;2022-07-04T04:48:06;26.40;68.30
31303;DHT22;51116;52.084;5.426;2022-07-04T04:50:33;26.40;68.30
31303;DHT22;51116;52.084;5.426;2022-07-04T04:53:00;26.40;68.30
31303;DHT22;51116;52.084;5.426;2022-07-04T04:55:27;26.40;68.30
31303;DHT22;51116;52.084;5.426;2022-07-04T04:57:55;26.40;68.30
31303;DHT22;51116;52.084;5.426;2022-07-04T05:00:22;26.40;68.40
31303;DHT22;51116;52.084;5.426;2022-07-04T05:02:49;26.50;68.50
31303;DHT22;51116;52.084;5.426;2022-07-04T05:05:16;26.40;68.40
31303;DHT22;51116;52.084;5.426;2022-07-04T05:07:43;26.40;68.40
31303;DHT22;51116;52.084;5.426;2022-07-04T05:10:10;26.40;68.40
31303;DHT22;51116;52.084;5.426;2022-07-04T05:12:37;26.40;68.30
31303;DHT22;51116;52.084;5.426;2022-07-04T05:15:06;26.40;68.40
31303;DHT22;51116;52.084;5.426;2022-07-04T05:17:33;26.40;68.40
31303;DHT22;51116;52.084;5.426;2022-07-04T05:20:00;26.40;68.40
31303;DHT22;51116;52.084;5.426;2022-07-04T05:22:27;26.50;68.50
31303;DHT22;51116;52.084;5.426;2022-07-04T05:24:54;26.50;68.50
31303;DHT22;51116;52.084;5.426;2022-07-04T05:27:20;26.50;68.50
31303;DHT22;51116;52.084;5.426;2022-07-04T05:29:47;26.50;68.50
31303;DHT22;51116;52.084;5.426;2022-07-04T05:32:15;26.50;68.40
31303;DHT22;51116;52.084;5.426;2022-07-04T05:34:42;26.50;68.50
31303;DHT22;51116;52.084;5.426;2022-07-04T05:37:09;26.50;68.50
31303;DHT22;51116;52.084;5.426;2022-07-04T05:39:36;26.60;68.60
31303;DHT22;51116;52.084;5.426;2022-07-04T05:42:03;26.60;68.50
31303;DHT22;51116;52.084;5.426;2022-07-04T05:44:30;26.60;68.50
31303;DHT22;51116;52.084;5.426;2022-07-04T05:46:57;26.60;68.50
31303;DHT22;51116;52.084;5.426;2022-07-04T05:49:25;26.60;68.50
31303;DHT22;51116;52.084;5.426;2022-07-04T05:51:52;26.60;68.50
31303;DHT22;51116;52.084;5.426;2022-07-04T05:54:19;26.60;68.50
31303;DHT22;51116;52.084;5.426;2022-07-04T05:56:45;26.70;68.60
31303;DHT22;51116;52.084;5.426;2022-07-04T05:59:12;26.70;68.60
31303;DHT22;51116;52.084;5.426;2022-07-04T06:01:39;26.70;68.60
31303;DHT22;51116;52.084;5.426;2022-07-04T06:04:06;26.70;68.60
31303;DHT22;51116;52.084;5.426;2022-07-04T06:06:34;26.70;68.60
31303;DHT22;51116;52.084;5.426;2022-07-04T06:09:02;26.70;68.60
31303;DHT22;51116;52.084;5.426;2022-07-04T06:11:29;26.70;68.60
31303;DHT22;51116;52.084;5.426;2022-07-04T06:13:56;26.70;69.50
31303;DHT22;51116;52.084;5.426;2022-07-04T06:16:23;26.80;68.80
31303;DHT22;51116;52.084;5.426;2022-07-04T06:18:50;26.80;68.80
31303;DHT22;51116;52.084;5.426;2022-07-04T06:21:17;26.80;68.70
31303;DHT22;51116;52.084;5.426;2022-07-04T06:23:45;26.80;68.70
31303;DHT22;51116;52.084;5.426;2022-07-04T06:26:12;26.80;68.70
31303;DHT22;51116;52.084;5.426;2022-07-04T06:28:39;26.80;68.70
31303;DHT22;51116;52.084;5.426;2022-07-04T06:31:06;26.80;68.80
31303;DHT22;51116;52.084;5.426;2022-07-04T06:33:32;26.80;68.80
31303;DHT22;51116;52.084;5.426;2022-07-04T06:36:19;26.90;69.00
31303;DHT22;51116;52.084;5.426;2022-07-04T06:38:47;26.90;69.00
31303;DHT22;51116;52.084;5.426;2022-07-04T06:41:13;26.90;68.90
31303;DHT22;51116;52.084;5.426;2022-07-04T06:43:40;27.00;68.90
31303;DHT22;51116;52.084;5.426;2022-07-04T06:46:07;27.10;68.90
31303;DHT22;51116;52.084;5.426;2022-07-04T06:48:34;27.10;68.90
31303;DHT22;51116;52.084;5.426;2022-07-04T06:51:02;27.10;68.80
31303;DHT22;51116;52.084;5.426;2022-07-04T06:53:29;27.20;68.80
31303;DHT22;51116;52.084;5.426;2022-07-04T06:55:57;27.20;68.80
31303;DHT22;51116;52.084;5.426;2022-07-04T06:58:24;27.30;68.70
31303;DHT22;51116;52.084;5.426;2022-07-04T07:00:50;27.30;68.70
31303;DHT22;51116;52.084;5.426;2022-07-04T07:03:17;27.40;68.60
31303;DHT22;51116;52.084;5.426;2022-07-04T07:05:44;27.30;68.40
31303;DHT22;51116;52.084;5.426;2022-07-04T07:08:11;27.50;68.60
31303;DHT22;51116;52.084;5.426;2022-07-04T07:10:38;27.50;68.50
31303;DHT22;51116;52.084;5.426;2022-07-04T07:13:06;27.50;68.40
31303;DHT22;51116;52.084;5.426;2022-07-04T07:15:34;27.60;68.40
31303;DHT22;51116;52.084;5.426;2022-07-04T07:18:01;27.70;68.40
31303;DHT22;51116;52.084;5.426;2022-07-04T07:20:28;27.70;68.20
31303;DHT22;51116;52.084;5.426;2022-07-04T07:22:54;27.70;68.20
31303;DHT22;51116;52.084;5.426;2022-07-04T07:25:21;27.70;68.20
31303;DHT22;51116;52.084;5.426;2022-07-04T07:27:48;27.80;68.20
31303;DHT22;51116;52.084;5.426;2022-07-04T07:30:16;27.90;68.10
31303;DHT22;51116;52.084;5.426;2022-07-04T07:32:43;27.90;68.00
31303;DHT22;51116;52.084;5.426;2022-07-04T07:35:10;28.00;67.90
31303;DHT22;51116;52.084;5.426;2022-07-04T07:37:37;28.00;67.80
31303;DHT22;51116;52.084;5.426;2022-07-04T07:40:06;28.10;67.80
31303;DHT22;51116;52.084;5.426;2022-07-04T07:42:33;28.20;67.80
31303;DHT22;51116;52.084;5.426;2022-07-04T07:44:59;28.20;67.70
31303;DHT22;51116;52.084;5.426;2022-07-04T07:47:28;28.20;67.50
31303;DHT22;51116;52.084;5.426;2022-07-04T07:49:54;28.20;67.60
31303;DHT22;51116;52.084;5.426;2022-07-04T07:52:22;28.20;67.50
31303;DHT22;51116;52.084;5.426;2022-07-04T07:54:48;28.30;67.60
31303;DHT22;51116;52.084;5.426;2022-07-04T07:57:15;28.30;67.50
31303;DHT22;51116;52.084;5.426;2022-07-04T07:59:43;28.40;67.40
31303;DHT22;51116;52.084;5.426;2022-07-04T08:02:10;28.50;67.30
31303;DHT22;51116;52.084;5.426;2022-07-04T08:04:38;28.40;67.00
31303;DHT22;51116;52.084;5.426;2022-07-04T08:07:08;28.50;67.10
31303;DHT22;51116;52.084;5.426;2022-07-04T08:09:36;28.50;67.10
31303;DHT22;51116;52.084;5.426;2022-07-04T08:12:04;28.60;66.90
31303;DHT22;51116;52.084;5.426;2022-07-04T08:14:33;28.50;66.80
31303;DHT22;51116;52.084;5.426;2022-07-04T08:17:00;28.60;66.90
31303;DHT22;51116;52.084;5.426;2022-07-04T08:19:28;28.60;66.90
31303;DHT22;51116;52.084;5.426;2022-07-04T08:21:56;28.70;66.80
31303;DHT22;51116;52.084;5.426;2022-07-04T08:24:23;28.70;66.70
31303;DHT22;51116;52.084;5.426;2022-07-04T08:26:49;28.70;66.50
31303;DHT22;51116;52.084;5.426;2022-07-04T08:29:17;28.70;66.50
31303;DHT22;51116;52.084;5.426;2022-07-04T08:31:44;28.70;66.40
31303;DHT22;51116;52.084;5.426;2022-07-04T08:34:11;28.70;66.40
31303;DHT22;51116;52.084;5.426;2022-07-04T08:36:38;28.60;66.30
31303;DHT22;51116;52.084;5.426;2022-07-04T08:39:07;28.60;66.30
31303;DHT22;51116;52.084;5.426;2022-07-04T08:41:37;28.60;66.50
31303;DHT22;51116;52.084;5.426;2022-07-04T08:44:07;28.70;66.50
31303;DHT22;51116;52.084;5.426;2022-07-04T08:46:38;28.70;66.40
31303;DHT22;51116;52.084;5.426;2022-07-04T08:49:10;28.60;66.30
31303;DHT22;51116;52.084;5.426;2022-07-04T08:51:44;28.60;66.30
31303;DHT22;51116;52.084;5.426;2022-07-04T08:54:15;28.50;66.20
31303;DHT22;51116;52.084;5.426;2022-07-04T08:56:59;28.50;66.30
31303;DHT22;51116;52.084;5.426;2022-07-04T08:59:44;28.40;66.30
31303;DHT22;51116;52.084;5.426;2022-07-04T09:02:16;28.30;66.30
31303;DHT22;51116;52.084;5.426;2022-07-04T09:04:44;28.30;66.40
31303;DHT22;51116;52.084;5.426;2022-07-04T09:07:11;28.40;66.60
31303;DHT22;51116;52.084;5.426;2022-07-04T09:09:41;28.40;66.50
31303;DHT22;51116;52.084;5.426;2022-07-04T09:12:08;28.40;66.60
31303;DHT22;51116;52.084;5.426;2022-07-04T09:14:35;28.30;66.40
31303;DHT22;51116;52.084;5.426;2022-07-04T09:17:03;28.40;66.60
31303;DHT22;51116;52.084;5.426;2022-07-04T09:19:31;28.50;66.50
31303;DHT22;51116;52.084;5.426;2022-07-04T09:22:02;28.60;66.50
31303;DHT22;51116;52.084;5.426;2022-07-04T09:24:45;28.80;67.30
31303;DHT22;51116;52.084;5.426;2022-07-04T09:27:13;28.80;66.30
31303;DHT22;51116;52.084;5.426;2022-07-04T09:29:54;28.90;66.10
31303;DHT22;51116;52.084;5.426;2022-07-04T09:32:33;28.90;66.00
31303;DHT22;51116;52.084;5.426;2022-07-04T09:35:02;28.90;65.80
31303;DHT22;51116;52.084;5.426;2022-07-04T09:37:34;28.80;65.60
31303;DHT22;51116;52.084;5.426;2022-07-04T09:40:04;28.90;65.80
31303;DHT22;51116;52.084;5.426;2022-07-04T09:42:39;28.90;65.60
31303;DHT22;51116;52.084;5.426;2022-07-04T09:45:08;28.90;65.40
31303;DHT22;51116;52.084;5.426;2022-07-04T09:47:37;29.00;65.40
31303;DHT22;51116;52.084;5.426;2022-07-04T09:50:06;29.00;65.20
31303;DHT22;51116;52.084;5.426;2022-07-04T09:52:43;29.00;65.10
31303;DHT22;51116;52.084;5.426;2022-07-04T09:55:11;29.00;65.10
31303;DHT22;51116;52.084;5.426;2022-07-04T09:57:44;29.10;65.00
31303;DHT22;51116;52.084;5.426;2022-07-04T10:00:19;29.10;64.90
31303;DHT22;51116;52.084;5.426;2022-07-04T10:02:47;29.20;64.90
31303;DHT22;51116;52.084;5.426;2022-07-04T10:05:19;29.20;64.80
31303;DHT22;51116;52.084;5.426;2022-07-04T10:07:46;29.30;64.70
31303;DHT22;51116;52.084;5.426;2022-07-04T10:10:26;29.30;64.50
31303;DHT22;51116;52.084;5.426;2022-07-04T10:12:55;29.20;64.30
31303;DHT22;51116;52.084;5.426;2022-07-04T10:15:22;29.20;64.20
31303;DHT22;51116;52.084;5.426;2022-07-04T10:17:49;29.20;64.10
31303;DHT22;51116;52.084;5.426;2022-07-04T10:20:16;29.10;64.10
31303;DHT22;51116;52.084;5.426;2022-07-04T10:22:43;29.10;64.00
31303;DHT22;51116;52.084;5.426;2022-07-04T10:25:11;29.20;63.90
31303;DHT22;51116;52.084;5.426;2022-07-04T10:27:39;29.30;64.00
31303;DHT22;51116;52.084;5.426;2022-07-04T10:30:09;29.40;63.90
31303;DHT22;51116;52.084;5.426;2022-07-04T10:32:37;29.30;63.70
31303;DHT22;51116;52.084;5.426;2022-07-04T10:35:05;29.30;63.60
31303;DHT22;51116;52.084;5.426;2022-07-04T10:37:59;29.40;63.70
31303;DHT22;51116;52.084;5.426;2022-07-04T10:40:43;29.40;63.60
31303;DHT22;51116;52.084;5.426;2022-07-04T10:46:48;29.50;63.60
31303;DHT22;51116;52.084;5.426;2022-07-04T10:49:26;29.50;63.40
31303;DHT22;51116;52.084;5.426;2022-07-04T10:51:56;29.50;63.30
31303;DHT22;51116;52.084;5.426;2022-07-04T10:54:31;29.50;63.30
31303;DHT22;51116;52.084;5.426;2022-07-04T10:57:09;29.50;63.30
31303;DHT22;51116;52.084;5.426;2022-07-04T10:59:37;29.50;63.20
31303;DHT22;51116;52.084;5.426;2022-07-04T11:02:28;29.60;63.20
31303;DHT22;51116;52.084;5.426;2022-07-04T11:04:58;29.60;63.00
31303;DHT22;51116;52.084;5.426;2022-07-04T11:07:58;29.70;63.00
31303;DHT22;51116;52.084;5.426;2022-07-04T11:10:25;29.80;62.80
31303;DHT22;51116;52.084;5.426;2022-07-04T11:13:14;29.80;62.70
31303;DHT22;51116;52.084;5.426;2022-07-04T11:15:57;29.90;62.60
31303;DHT22;51116;52.084;5.426;2022-07-04T11:18:27;29.90;62.30
31303;DHT22;51116;52.084;5.426;2022-07-04T11:20:54;29.80;62.20
31303;DHT22;51116;52.084;5.426;2022-07-04T11:23:21;29.80;62.10
31303;DHT22;51116;52.084;5.426;2022-07-04T11:25:50;29.80;62.20
31303;DHT22;51116;52.084;5.426;2022-07-04T11:28:21;29.80;62.20
31303;DHT22;51116;52.084;5.426;2022-07-04T11:30:49;29.80;62.10
31303;DHT22;51116;52.084;5.426;2022-07-04T11:33:22;29.90;62.20
31303;DHT22;51116;52.084;5.426;2022-07-04T11:36:05;29.90;61.90
31303;DHT22;51116;52.084;5.426;2022-07-04T11:38:46;29.90;61.90
31303;DHT22;51116;52.084;5.426;2022-07-04T11:41:13;29.90;61.80
31303;DHT22;51116;52.084;5.426;2022-07-04T11:43:59;29.90;61.90
31303;DHT22;51116;52.084;5.426;2022-07-04T11:46:46;29.90;61.70
31303;DHT22;51116;52.084;5.426;2022-07-04T11:49:13;29.90;61.40
31303;DHT22;51116;52.084;5.426;2022-07-04T11:51:46;29.90;61.40
31303;DHT22;51116;52.084;5.426;2022-07-04T11:54:13;29.90;61.40
31303;DHT22;51116;52.084;5.426;2022-07-04T11:56:41;29.90;61.50
31303;DHT22;51116;52.084;5.426;2022-07-04T11:59:11;29.90;61.50
31303;DHT22;51116;52.084;5.426;2022-07-04T12:01:39;29.90;61.50
31303;DHT22;51116;52.084;5.426;2022-07-04T12:04:14;30.00;61.50
31303;DHT22;51116;52.084;5.426;2022-07-04T12:06:41;30.00;61.40
31303;DHT22;51116;52.084;5.426;2022-07-04T12:09:10;30.00;61.40
31303;DHT22;51116;52.084;5.426;2022-07-04T12:11:50;29.90;61.40
31303;DHT22;51116;52.084;5.426;2022-07-04T12:14:17;30.00;61.40
31303;DHT22;51116;52.084;5.426;2022-07-04T12:16:43;30.00;61.40
31303;DHT22;51116;52.084;5.426;2022-07-04T12:19:13;30.10;61.20
31303;DHT22;51116;52.084;5.426;2022-07-04T12:21:42;30.10;61.20
31303;DHT22;51116;52.084;5.426;2022-07-04T12:24:10;30.10;61.90
31303;DHT22;51116;52.084;5.426;2022-07-04T12:26:47;30.10;60.90
31303;DHT22;51116;52.084;5.426;2022-07-04T12:29:21;30.20;61.00
31303;DHT22;51116;52.084;5.426;2022-07-04T12:31:51;30.20;60.90
31303;DHT22;51116;52.084;5.426;2022-07-04T12:34:19;30.20;60.80
31303;DHT22;51116;52.084;5.426;2022-07-04T12:36:51;30.30;60.60
31303;DHT22;51116;52.084;5.426;2022-07-04T12:39:33;30.30;60.70
31303;DHT22;51116;52.084;5.426;2022-07-04T12:42:04;30.30;60.50
31303;DHT22;51116;52.084;5.426;2022-07-04T12:44:32;30.30;60.40
31303;DHT22;51116;52.084;5.426;2022-07-04T12:46:59;30.30;60.30
31303;DHT22;51116;52.084;5.426;2022-07-04T12:49:26;30.30;60.20
31303;DHT22;51116;52.084;5.426;2022-07-04T12:52:04;30.30;60.90
31303;DHT22;51116;52.084;5.426;2022-07-04T12:54:32;30.30;60.00
31303;DHT22;51116;52.084;5.426;2022-07-04T12:57:07;30.30;59.90
31303;DHT22;51116;52.084;5.426;2022-07-04T12:59:35;30.40;59.90
31303;DHT22;51116;52.084;5.426;2022-07-04T13:02:02;30.30;59.80
31303;DHT22;51116;52.084;5.426;2022-07-04T13:04:29;30.30;59.70
31303;DHT22;51116;52.084;5.426;2022-07-04T13:06:59;30.30;59.70
31303;DHT22;51116;52.084;5.426;2022-07-04T13:09:26;30.40;59.80
31303;DHT22;51116;52.084;5.426;2022-07-04T13:11:54;30.40;59.70
31303;DHT22;51116;52.084;5.426;2022-07-04T13:14:39;30.40;59.70
31303;DHT22;51116;52.084;5.426;2022-07-04T13:17:06;30.40;59.60
31303;DHT22;51116;52.084;5.426;2022-07-04T13:19:33;30.40;59.60
31303;DHT22;51116;52.084;5.426;2022-07-04T13:22:00;30.40;59.70
31303;DHT22;51116;52.084;5.426;2022-07-04T13:24:27;30.40;59.70
31303;DHT22;51116;52.084;5.426;2022-07-04T13:26:55;30.40;59.60
31303;DHT22;51116;52.084;5.426;2022-07-04T13:29:22;30.40;59.60
31303;DHT22;51116;52.084;5.426;2022-07-04T13:31:49;30.40;59.60
31303;DHT22;51116;52.084;5.426;2022-07-04T13:34:16;30.40;59.60
31303;DHT22;51116;52.084;5.426;2022-07-04T13:36:45;30.30;59.50
31303;DHT22;51116;52.084;5.426;2022-07-04T13:39:12;30.50;59.60
31303;DHT22;51116;52.084;5.426;2022-07-04T13:41:42;30.50;59.50
31303;DHT22;51116;52.084;5.426;2022-07-04T13:44:10;30.50;59.60
31303;DHT22;51116;52.084;5.426;2022-07-04T13:46:41;30.50;59.50
31303;DHT22;51116;52.084;5.426;2022-07-04T13:49:08;30.50;59.50
31303;DHT22;51116;52.084;5.426;2022-07-04T13:51:35;30.50;59.50
31303;DHT22;51116;52.084;5.426;2022-07-04T13:54:02;30.50;59.40
31303;DHT22;51116;52.084;5.426;2022-07-04T13:56:30;30.50;59.40
31303;DHT22;51116;52.084;5.426;2022-07-04T13:58:57;30.50;59.40
31303;DHT22;51116;52.084;5.426;2022-07-04T14:01:25;30.60;59.40
31303;DHT22;51116;52.084;5.426;2022-07-04T14:03:52;30.60;59.40
31303;DHT22;51116;52.084;5.426;2022-07-04T14:06:19;30.60;59.40
31303;DHT22;51116;52.084;5.426;2022-07-04T14:08:46;30.70;59.50
31303;DHT22;51116;52.084;5.426;2022-07-04T14:11:13;30.70;59.50
31303;DHT22;51116;52.084;5.426;2022-07-04T14:13:40;30.70;59.50
31303;DHT22;51116;52.084;5.426;2022-07-04T14:16:07;30.70;59.50
31303;DHT22;51116;52.084;5.426;2022-07-04T14:18:35;30.70;59.50
31303;DHT22;51116;52.084;5.426;2022-07-04T14:21:02;30.80;59.50
31303;DHT22;51116;52.084;5.426;2022-07-04T14:23:29;30.80;59.50
31303;DHT22;51116;52.084;5.426;2022-07-04T14:26:11;30.80;59.50
31303;DHT22;51116;52.084;5.426;2022-07-04T14:28:38;30.80;59.50
31303;DHT22;51116;52.084;5.426;2022-07-04T14:31:06;30.90;60.30
31303;DHT22;51116;52.084;5.426;2022-07-04T14:33:34;30.90;59.60
31303;DHT22;51116;52.084;5.426;2022-07-04T14:36:02;30.90;59.60
31303;DHT22;51116;52.084;5.426;2022-07-04T14:38:29;30.90;59.50
31303;DHT22;51116;52.084;5.426;2022-07-04T14:40:56;31.00;59.50
31303;DHT22;51116;52.084;5.426;2022-07-04T14:43:36;31.00;59.50
31303;DHT22;51116;52.084;5.426;2022-07-04T14:46:04;31.00;59.50
31303;DHT22;51116;52.084;5.426;2022-07-04T14:48:31;31.00;59.40
31303;DHT22;51116;52.084;5.426;2022-07-04T14:50:59;31.00;59.40
31303;DHT22;51116;52.084;5.426;2022-07-04T14:53:26;31.10;59.50
31303;DHT22;51116;52.084;5.426;2022-07-04T14:55:53;31.10;59.50
31303;DHT22;51116;52.084;5.426;2022-07-04T14:58:20;31.10;59.50
31303;DHT22;51116;52.084;5.426;2022-07-04T15:00:47;31.20;59.50
31303;DHT22;51116;52.084;5.426;2022-07-04T15:03:14;31.20;59.50
31303;DHT22;51116;52.084;5.426;2022-07-04T15:05:42;31.20;59.50
31303;DHT22;51116;52.084;5.426;2022-07-04T15:08:10;31.20;59.50
31303;DHT22;51116;52.084;5.426;2022-07-04T15:10:37;31.20;59.50
31303;DHT22;51116;52.084;5.426;2022-07-04T15:13:04;31.30;59.60
31303;DHT22;51116;52.084;5.426;2022-07-04T15:15:31;31.30;59.60
31303;DHT22;51116;52.084;5.426;2022-07-04T15:17:58;31.30;59.50
31303;DHT22;51116;52.084;5.426;2022-07-04T15:20:25;31.30;59.40
31303;DHT22;51116;52.084;5.426;2022-07-04T15:23:11;31.30;59.40
31303;DHT22;51116;52.084;5.426;2022-07-04T15:25:56;31.30;59.40
31303;DHT22;51116;52.084;5.426;2022-07-04T15:28:23;31.30;59.40
31303;DHT22;51116;52.084;5.426;2022-07-04T15:30:50;31.40;59.40
31303;DHT22;51116;52.084;5.426;2022-07-04T15:33:17;31.40;59.40
31303;DHT22;51116;52.084;5.426;2022-07-04T15:35:44;31.40;59.40
31303;DHT22;51116;52.084;5.426;2022-07-04T15:38:13;31.40;59.50
31303;DHT22;51116;52.084;5.426;2022-07-04T15:40:40;31.40;59.40
31303;DHT22;51116;52.084;5.426;2022-07-04T15:43:08;31.50;59.50
31303;DHT22;51116;52.084;5.426;2022-07-04T15:45:35;31.50;59.50